createdAt,value
2018-05-16T00:01:13.655Z,100870.48
2018-05-16T00:03:41.184Z,100874.75
2018-05-16T00:06:08.709Z,100879.06
2018-05-16T00:08:36.236Z,100885.16
2018-05-16T00:11:03.761Z,100883.70
2018-05-16T00:13:31.306Z,100889.54
2018-05-16T00:15:58.836Z,100891.73
2018-05-16T00:18:26.368Z,100888.83
2018-05-16T00:20:53.900Z,100880.30
2018-05-16T00:23:21.424Z,100884.73
2018-05-16T00:25:48.949Z,100885.70
2018-05-16T00:28:16.480Z,100881.61
2018-05-16T00:30:44.009Z,100880.84
2018-05-16T00:33:11.532Z,100883.70
2018-05-16T00:35:39.057Z,100878.65
2018-05-16T00:38:06.585Z,100877.60
2018-05-16T00:40:34.132Z,100872.52
2018-05-16T00:43:01.661Z,100872.62
2018-05-16T00:45:29.374Z,100883.38
2018-05-16T00:47:56.896Z,100880.30
2018-05-16T00:50:24.440Z,100878.73
2018-05-16T00:52:51.975Z,100877.17
2018-05-16T00:55:19.500Z,100876.41
2018-05-16T00:57:47.016Z,100876.03
2018-05-16T01:00:14.549Z,100877.64
2018-05-16T01:02:42.076Z,100878.99
2018-05-16T01:05:09.608Z,100876.21
2018-05-16T01:07:37.132Z,100877.77
2018-05-16T01:10:04.664Z,100883.00
2018-05-16T01:12:32.192Z,100878.48
2018-05-16T01:14:59.731Z,100874.16
2018-05-16T01:17:27.268Z,100877.70
2018-05-16T01:19:54.853Z,100874.09
2018-05-16T01:22:22.361Z,100878.70
2018-05-16T01:24:49.880Z,100875.95
2018-05-16T01:27:17.404Z,100873.40
2018-05-16T01:29:44.936Z,100869.79
2018-05-16T01:32:12.455Z,100875.30
2018-05-16T01:34:39.991Z,100866.48
2018-05-16T01:37:07.508Z,100868.33
2018-05-16T01:39:35.040Z,100869.56
2018-05-16T01:42:02.592Z,100872.38
2018-05-16T01:44:30.107Z,100866.21
2018-05-16T01:46:57.631Z,100866.16
2018-05-16T01:49:25.163Z,100868.70
2018-05-16T01:51:52.693Z,100870.26
2018-05-16T01:54:20.223Z,100869.67
2018-05-16T01:56:47.747Z,100866.41
2018-05-16T01:59:15.276Z,100873.63
2018-05-16T02:01:42.815Z,100877.71
2018-05-16T02:04:10.355Z,100874.27
2018-05-16T02:06:37.892Z,100869.86
2018-05-16T02:09:06.330Z,100876.33
2018-05-16T02:11:33.883Z,100871.70
2018-05-16T02:14:01.420Z,100874.82
2018-05-16T02:16:28.950Z,100877.47
2018-05-16T02:18:56.476Z,100874.61
2018-05-16T02:21:24.002Z,100868.50
2018-05-16T02:23:51.537Z,100875.49
2018-05-16T02:26:19.082Z,100873.06
2018-05-16T02:28:46.609Z,100874.80
2018-05-16T02:31:14.135Z,100865.69
2018-05-16T02:33:41.660Z,100866.27
2018-05-16T02:36:09.183Z,100864.44
2018-05-16T02:38:36.731Z,100866.01
2018-05-16T02:41:04.310Z,100865.14
2018-05-16T02:43:31.831Z,100861.32
2018-05-16T02:45:59.355Z,100862.69
2018-05-16T02:48:26.901Z,100864.34
2018-05-16T02:50:54.473Z,100862.17
2018-05-16T02:53:22.010Z,100860.94
2018-05-16T02:55:49.548Z,100864.16
2018-05-16T02:58:17.094Z,100859.89
2018-05-16T03:00:44.612Z,100862.92
2018-05-16T03:03:12.140Z,100863.84
2018-05-16T03:05:39.676Z,100857.97
2018-05-16T03:08:07.205Z,100862.01
2018-05-16T03:10:34.745Z,100869.44
2018-05-16T03:13:02.276Z,100860.91
2018-05-16T03:15:29.816Z,100866.09
2018-05-16T03:17:57.336Z,100865.81
2018-05-16T03:20:24.865Z,100868.50
2018-05-16T03:22:52.409Z,100869.80
2018-05-16T03:25:19.945Z,100864.09
2018-05-16T03:27:47.476Z,100856.05
2018-05-16T03:30:15.008Z,100859.73
2018-05-16T03:32:42.554Z,100861.85
2018-05-16T03:35:10.090Z,100856.26
2018-05-16T03:37:37.615Z,100855.93
2018-05-16T03:40:05.160Z,100853.22
2018-05-16T03:42:32.694Z,100853.61
2018-05-16T03:45:00.221Z,100853.13
2018-05-16T03:47:27.747Z,100852.74
2018-05-16T03:49:55.277Z,100852.92
2018-05-16T03:52:22.805Z,100857.90
2018-05-16T03:54:50.332Z,100859.97
2018-05-16T03:57:29.543Z,100856.45
2018-05-16T04:00:08.889Z,100861.73
2018-05-16T04:05:40.080Z,100863.44
2018-05-16T04:08:07.614Z,100859.49
2018-05-16T04:10:35.144Z,100862.03
2018-05-16T04:13:02.673Z,100861.88
2018-05-16T04:15:30.207Z,100859.02
2018-05-16T04:17:57.756Z,100861.67
2018-05-16T04:20:25.287Z,100855.09
2018-05-16T04:22:52.809Z,100855.31
2018-05-16T04:25:20.336Z,100858.43
2018-05-16T04:27:47.902Z,100853.49
2018-05-16T04:30:15.426Z,100851.16
2018-05-16T04:32:43.025Z,100849.44
2018-05-16T04:35:10.505Z,100848.47
2018-05-16T04:37:38.036Z,100846.58
2018-05-16T04:40:05.558Z,100849.91
2018-05-16T04:42:33.084Z,100845.98
2018-05-16T04:45:00.608Z,100852.95
2018-05-16T04:47:28.139Z,100857.59
2018-05-16T04:49:55.677Z,100856.88
2018-05-16T04:52:23.239Z,100852.24
2018-05-16T04:54:50.763Z,100864.82
2018-05-16T04:57:18.308Z,100861.16
2018-05-16T04:59:45.844Z,100872.27
2018-05-16T05:02:13.389Z,100876.58
2018-05-16T05:04:40.928Z,100873.30
2018-05-16T05:07:08.452Z,100878.22
2018-05-16T05:09:36.006Z,100873.95
2018-05-16T05:12:03.529Z,100879.39
2018-05-16T05:14:31.056Z,100874.53
2018-05-16T05:16:58.588Z,100875.99
2018-05-16T05:19:26.113Z,100874.95
2018-05-16T05:21:53.640Z,100876.61
2018-05-16T05:24:21.164Z,100871.88
2018-05-16T05:26:48.714Z,100874.99
2018-05-16T05:29:16.244Z,100874.54
2018-05-16T05:31:43.774Z,100868.43
2018-05-16T05:34:11.297Z,100872.77
2018-05-16T05:36:38.825Z,100874.37
2018-05-16T05:39:06.352Z,100875.02
2018-05-16T05:41:33.881Z,100878.05
2018-05-16T05:44:01.400Z,100873.64
2018-05-16T05:46:28.934Z,100873.16
2018-05-16T05:48:56.458Z,100876.52
2018-05-16T05:51:23.992Z,100872.13
2018-05-16T05:53:51.524Z,100868.23
2018-05-16T05:56:19.064Z,100868.12
2018-05-16T05:58:46.595Z,100871.95
2018-05-16T06:01:14.115Z,100871.67
2018-05-16T06:03:41.656Z,100880.86
2018-05-16T06:06:09.263Z,100867.94
2018-05-16T06:08:36.728Z,100870.53
2018-05-16T06:11:04.254Z,100866.97
2018-05-16T06:13:31.780Z,100871.11
2018-05-16T06:15:59.299Z,100868.29
2018-05-16T06:18:26.826Z,100869.83
2018-05-16T06:20:54.372Z,100863.48
2018-05-16T06:23:21.901Z,100869.80
2018-05-16T06:25:49.435Z,100857.48
2018-05-16T06:28:16.968Z,100855.31
2018-05-16T06:30:44.492Z,100852.47
2018-05-16T06:33:12.021Z,100844.10
2018-05-16T06:35:39.547Z,100845.05
2018-05-16T06:38:07.072Z,100849.59
2018-05-16T06:40:34.610Z,100853.02
2018-05-16T06:43:02.145Z,100853.10
2018-05-16T06:45:31.815Z,100847.64
2018-05-16T06:47:59.341Z,100847.74
2018-05-16T06:50:26.891Z,100850.39
2018-05-16T06:52:54.426Z,100852.53
2018-05-16T06:55:22.015Z,100858.50
2018-05-16T06:57:49.573Z,100862.37
2018-05-16T07:00:17.108Z,100866.38
2018-05-16T07:02:44.762Z,100868.13
2018-05-16T07:05:12.417Z,100863.67
2018-05-16T07:07:39.943Z,100864.56
2018-05-16T07:10:07.537Z,100862.90
2018-05-16T07:12:35.069Z,100860.36
2018-05-16T07:15:02.613Z,100859.67
2018-05-16T07:17:30.212Z,100863.41
2018-05-16T07:19:57.744Z,100867.39
2018-05-16T07:22:25.338Z,100863.67
2018-05-16T07:24:52.870Z,100866.06
2018-05-16T07:27:20.397Z,100865.04
2018-05-16T07:29:47.936Z,100859.19
2018-05-16T07:32:15.580Z,100856.63
2018-05-16T07:34:43.109Z,100849.35
2018-05-16T07:37:10.700Z,100848.77
2018-05-16T07:39:38.225Z,100840.37
2018-05-16T07:42:05.883Z,100845.45
2018-05-16T07:44:33.479Z,100840.84
2018-05-16T07:47:01.097Z,100835.61
2018-05-16T07:49:28.618Z,100834.98
2018-05-16T07:51:56.265Z,100836.78
2018-05-16T07:54:23.793Z,100837.42
2018-05-16T07:56:51.324Z,100836.87
2018-05-16T07:59:18.876Z,100836.73
2018-05-16T08:01:46.403Z,100835.48
2018-05-16T08:04:13.940Z,100835.59
2018-05-16T08:06:41.487Z,100837.44
2018-05-16T08:09:09.018Z,100837.67
2018-05-16T08:11:36.573Z,100834.06
2018-05-16T08:14:04.112Z,100836.74
2018-05-16T08:16:31.632Z,100834.31
2018-05-16T08:18:59.216Z,100836.92
2018-05-16T08:21:26.881Z,100836.06
2018-05-16T08:23:54.414Z,100838.59
2018-05-16T08:26:21.941Z,100840.13
2018-05-16T08:28:49.549Z,100837.89
2018-05-16T08:31:17.170Z,100839.80
2018-05-16T08:33:44.680Z,100836.30
2018-05-16T08:36:12.227Z,100838.29
2018-05-16T08:38:39.801Z,100842.20
2018-05-16T08:41:07.395Z,100842.02
2018-05-16T08:43:35.027Z,100840.26
2018-05-16T08:46:02.599Z,100848.11
2018-05-16T08:48:30.129Z,100840.45
2018-05-16T08:50:57.660Z,100844.58
2018-05-16T08:53:25.206Z,100845.11
2018-05-16T08:55:52.824Z,100839.45
2018-05-16T08:58:20.349Z,100838.33
2018-05-16T09:00:47.944Z,100835.75
2018-05-16T09:03:15.475Z,100836.00
2018-05-16T09:05:42.992Z,100840.94
2018-05-16T09:08:10.675Z,100834.78
2018-05-16T09:10:38.215Z,100841.40
2018-05-16T09:13:05.749Z,100832.64
2018-05-16T09:15:33.268Z,100837.30
2018-05-16T09:18:00.796Z,100838.42
2018-05-16T09:20:28.424Z,100837.09
2018-05-16T09:22:55.984Z,100839.06
2018-05-16T09:25:23.508Z,100841.98
2018-05-16T09:27:51.062Z,100840.73
2018-05-16T09:30:18.592Z,100838.69
2018-05-16T09:32:46.108Z,100827.49
2018-05-16T09:35:13.633Z,100833.39
2018-05-16T09:37:41.160Z,100826.31
2018-05-16T09:40:08.689Z,100833.58
2018-05-16T09:42:36.223Z,100846.77
2018-05-16T09:45:03.758Z,100838.00
2018-05-16T09:47:31.276Z,100834.11
2018-05-16T09:49:58.795Z,100843.06
2018-05-16T09:52:26.316Z,100843.48
2018-05-16T09:54:53.849Z,100831.36
2018-05-16T09:57:21.372Z,100838.17
2018-05-16T09:59:49.531Z,100830.92
2018-05-16T10:02:17.713Z,100831.30
2018-05-16T10:04:45.239Z,100828.95
2018-05-16T10:07:12.780Z,100834.02
2018-05-16T10:09:40.360Z,100839.75
2018-05-16T10:12:07.901Z,100841.41
2018-05-16T10:14:35.432Z,100843.21
2018-05-16T10:17:02.989Z,100843.73
2018-05-16T10:19:30.513Z,100837.73
2018-05-16T10:21:58.044Z,100844.87
2018-05-16T10:24:25.592Z,100840.87
2018-05-16T10:26:53.158Z,100838.09
2018-05-16T10:29:20.684Z,100841.34
2018-05-16T10:31:48.211Z,100846.61
2018-05-16T10:34:15.810Z,100840.44
2018-05-16T10:36:43.369Z,100840.53
2018-05-16T10:39:10.902Z,100832.41
2018-05-16T10:41:38.456Z,100829.81
2018-05-16T10:44:05.984Z,100832.73
2018-05-16T10:46:33.507Z,100833.66
2018-05-16T10:49:01.032Z,100835.81
2018-05-16T10:51:28.572Z,100835.16
2018-05-16T10:53:56.112Z,100834.25
2018-05-16T10:56:23.641Z,100832.81
2018-05-16T10:58:51.168Z,100828.72
2018-05-16T11:01:18.693Z,100833.16
2018-05-16T11:03:46.219Z,100828.38
2018-05-16T11:06:13.749Z,100834.36
2018-05-16T11:08:41.272Z,100833.22
2018-05-16T11:11:08.798Z,100830.61
2018-05-16T11:13:36.326Z,100828.43
2018-05-16T11:16:03.852Z,100814.50
2018-05-16T11:18:31.409Z,100817.54
2018-05-16T11:20:58.936Z,100814.91
2018-05-16T11:23:26.459Z,100816.81
2018-05-16T11:25:53.988Z,100817.16
2018-05-16T11:28:21.513Z,100813.52
2018-05-16T11:30:49.103Z,100811.23
2018-05-16T11:33:16.652Z,100804.64
2018-05-16T11:35:44.178Z,100801.75
2018-05-16T11:38:11.711Z,100798.41
2018-05-16T11:40:39.247Z,100794.78
2018-05-16T11:43:06.789Z,100800.83
2018-05-16T11:45:34.329Z,100795.09
2018-05-16T11:48:01.887Z,100792.09
2018-05-16T11:50:29.416Z,100790.48
2018-05-16T11:52:56.952Z,100789.09
2018-05-16T11:55:24.498Z,100795.75
2018-05-16T11:57:52.031Z,100782.33
2018-05-16T12:00:19.548Z,100790.44
2018-05-16T12:02:47.266Z,100789.00
2018-05-16T12:05:14.741Z,100787.63
2018-05-16T12:07:42.331Z,100789.81
2018-05-16T12:10:09.863Z,100792.92
2018-05-16T12:12:37.419Z,100787.66
2018-05-16T12:15:04.956Z,100782.82
2018-05-16T12:17:32.508Z,100781.39
2018-05-16T12:20:00.086Z,100781.12
2018-05-16T12:22:27.625Z,100785.57
2018-05-16T12:24:55.148Z,100783.20
2018-05-16T12:27:22.788Z,100778.12
2018-05-16T12:29:50.340Z,100778.48
2018-05-16T12:32:17.866Z,100769.13
2018-05-16T12:34:45.443Z,100773.55
2018-05-16T12:37:12.987Z,100766.73
2018-05-16T12:39:40.523Z,100764.68
2018-05-16T12:42:08.107Z,100765.63
2018-05-16T12:44:35.652Z,100757.09
2018-05-16T12:47:03.270Z,100768.41
2018-05-16T12:49:30.798Z,100758.66
2018-05-16T12:51:58.337Z,100762.31
2018-05-16T12:54:25.870Z,100760.50
2018-05-16T12:56:53.396Z,100757.98
2018-05-16T12:59:20.924Z,100756.36
2018-05-16T13:01:48.444Z,100760.86
2018-05-16T13:04:15.975Z,100759.49
2018-05-16T13:06:43.499Z,100751.12
2018-05-16T13:09:11.020Z,100747.23
2018-05-16T13:11:38.549Z,100751.05
2018-05-16T13:14:06.077Z,100747.81
2018-05-16T13:16:33.599Z,100746.93
2018-05-16T13:19:01.139Z,100753.37
2018-05-16T13:21:28.729Z,100741.77
2018-05-16T13:23:56.209Z,100737.66
2018-05-16T13:26:23.760Z,100737.16
2018-05-16T13:28:51.677Z,100737.23
2018-05-16T13:31:19.233Z,100742.05
2018-05-16T13:33:46.797Z,100737.94
2018-05-16T13:36:14.369Z,100746.88
2018-05-16T13:38:42.020Z,100742.13
2018-05-16T13:41:09.536Z,100736.95
2018-05-16T13:43:37.065Z,100739.26
2018-05-16T13:46:04.700Z,100738.16
2018-05-16T13:48:32.216Z,100735.83
2018-05-16T13:50:59.820Z,100735.09
2018-05-16T13:53:27.380Z,100743.41
2018-05-16T13:55:54.909Z,100737.73
2018-05-16T13:58:22.429Z,100731.96
2018-05-16T14:00:49.957Z,100723.23
2018-05-16T14:03:17.513Z,100729.03
2018-05-16T14:05:45.070Z,100737.63
2018-05-16T14:08:12.613Z,100732.77
2018-05-16T14:10:40.128Z,100732.64
2018-05-16T14:13:07.759Z,100734.07
2018-05-16T14:15:35.312Z,100734.64
2018-05-16T14:18:02.827Z,100727.41
2018-05-16T14:20:30.357Z,100725.46
2018-05-16T14:22:57.896Z,100732.63
2018-05-16T14:25:25.419Z,100730.66
2018-05-16T14:27:52.948Z,100729.77
2018-05-16T14:30:20.478Z,100735.70
2018-05-16T14:32:48.034Z,100731.18
2018-05-16T14:35:15.556Z,100725.14
2018-05-16T14:37:43.089Z,100728.39
2018-05-16T14:40:10.652Z,100724.58
2018-05-16T14:42:38.250Z,100732.00
2018-05-16T14:45:05.745Z,100730.70
2018-05-16T14:47:33.276Z,100724.87
2018-05-16T14:50:00.808Z,100713.34
2018-05-16T14:52:28.343Z,100724.65
2018-05-16T14:54:55.972Z,100731.05
2018-05-16T14:57:23.513Z,100725.69
2018-05-16T14:59:51.024Z,100732.89
2018-05-16T15:02:18.568Z,100734.61
2018-05-16T15:04:46.093Z,100735.85
2018-05-16T15:07:13.629Z,100733.82
2018-05-16T15:09:41.156Z,100730.20
2018-05-16T15:12:08.686Z,100731.34
2018-05-16T15:14:36.215Z,100732.47
2018-05-16T15:17:03.777Z,100731.58
2018-05-16T15:19:31.306Z,100729.70
2018-05-16T15:21:58.880Z,100732.98
2018-05-16T15:24:26.412Z,100728.17
2018-05-16T15:26:53.968Z,100735.45
2018-05-16T15:29:21.504Z,100732.21
2018-05-16T15:31:49.035Z,100733.39
2018-05-16T15:34:16.560Z,100722.66
2018-05-16T15:36:44.082Z,100734.92
2018-05-16T15:39:11.611Z,100725.64
2018-05-16T15:41:39.143Z,100729.56
2018-05-16T15:44:06.761Z,100731.59
2018-05-16T15:46:34.279Z,100727.40
2018-05-16T15:49:01.819Z,100733.57
2018-05-16T15:51:29.339Z,100731.84
2018-05-16T15:53:56.862Z,100734.33
2018-05-16T15:56:24.390Z,100737.72
2018-05-16T15:58:51.917Z,100743.80
2018-05-16T16:01:19.444Z,100743.09
2018-05-16T16:03:46.968Z,100741.03
2018-05-16T16:06:14.503Z,100740.19
2018-05-16T16:08:42.019Z,100737.65
2018-05-16T16:11:09.557Z,100736.50
2018-05-16T16:13:37.084Z,100742.47
2018-05-16T16:16:04.649Z,100739.78
2018-05-16T16:18:32.173Z,100742.39
2018-05-16T16:20:59.710Z,100746.13
2018-05-16T16:23:27.256Z,100739.07
2018-05-16T16:25:54.796Z,100742.75
2018-05-16T16:28:22.532Z,100745.58
2018-05-16T16:30:50.106Z,100744.53
2018-05-16T16:33:17.655Z,100739.36
2018-05-16T16:35:45.214Z,100738.26
2018-05-16T16:38:12.771Z,100736.48
2018-05-16T16:40:40.323Z,100738.56
2018-05-16T16:43:07.863Z,100736.67
2018-05-16T16:45:35.401Z,100734.30
2018-05-16T16:48:02.961Z,100733.87
2018-05-16T16:50:30.521Z,100721.20
2018-05-16T16:52:58.093Z,100720.30
2018-05-16T16:55:25.645Z,100721.70
2018-05-16T16:57:53.193Z,100717.83
2018-05-16T17:00:20.761Z,100713.59
2018-05-16T17:02:48.304Z,100719.84
2018-05-16T17:05:15.837Z,100713.84
2018-05-16T17:07:43.372Z,100708.22
2018-05-16T17:10:11.073Z,100711.13
2018-05-16T17:12:38.623Z,100711.20
2018-05-16T17:15:06.183Z,100706.14
2018-05-16T17:17:33.738Z,100704.27
2018-05-16T17:20:01.291Z,100709.48
2018-05-16T17:22:28.860Z,100707.45
2018-05-16T17:24:56.500Z,100706.58
2018-05-16T17:27:24.001Z,100709.53
2018-05-16T17:29:51.554Z,100711.67
2018-05-16T17:32:19.075Z,100707.09
2018-05-16T17:34:46.588Z,100707.39
2018-05-16T17:37:14.117Z,100707.05
2018-05-16T17:39:41.676Z,100704.83
2018-05-16T17:42:09.238Z,100703.39
2018-05-16T17:44:36.774Z,100700.50
2018-05-16T17:47:04.329Z,100699.20
2018-05-16T17:49:31.850Z,100699.95
2018-05-16T17:51:59.372Z,100703.55
2018-05-16T17:54:26.913Z,100702.19
2018-05-16T17:56:54.462Z,100700.61
2018-05-16T17:59:21.977Z,100702.47
2018-05-16T18:01:49.510Z,100701.76
2018-05-16T18:04:17.069Z,100709.02
2018-05-16T18:06:44.594Z,100717.27
2018-05-16T18:09:12.112Z,100721.34
2018-05-16T18:11:39.632Z,100718.30
2018-05-16T18:14:19.089Z,100717.75
2018-05-16T18:16:58.718Z,100724.14
2018-05-16T18:19:26.285Z,100718.08
2018-05-16T18:21:53.845Z,100719.13
2018-05-16T18:24:21.365Z,100726.02
2018-05-16T18:26:48.968Z,100717.25
2018-05-16T18:29:16.502Z,100725.30
2018-05-16T18:31:44.071Z,100729.74
2018-05-16T18:34:11.584Z,100733.97
2018-05-16T18:36:39.139Z,100735.27
2018-05-16T18:39:06.769Z,100733.73
2018-05-16T18:41:34.291Z,100736.53
2018-05-16T18:44:01.829Z,100734.48
2018-05-16T18:46:29.377Z,100734.91
2018-05-16T18:48:57.007Z,100742.05
2018-05-16T18:51:24.574Z,100738.64
2018-05-16T18:53:52.129Z,100744.56
2018-05-16T18:56:19.687Z,100746.64
2018-05-16T18:58:47.217Z,100747.77
2018-05-16T19:01:14.745Z,100750.98
2018-05-16T19:03:42.291Z,100747.37
2018-05-16T19:06:09.912Z,100752.85
2018-05-16T19:08:37.528Z,100756.19
2018-05-16T19:11:05.079Z,100758.05
2018-05-16T19:13:32.707Z,100760.09
2018-05-16T19:16:00.271Z,100765.69
2018-05-16T19:18:27.799Z,100760.62
2018-05-16T19:20:55.325Z,100768.12
2018-05-16T19:23:22.861Z,100768.48
2018-05-16T19:25:50.407Z,100769.23
2018-05-16T19:28:17.936Z,100773.53
2018-05-16T19:30:45.458Z,100772.16
2018-05-16T19:33:12.983Z,100778.36
2018-05-16T19:35:40.513Z,100772.91
2018-05-16T19:38:08.104Z,100781.75
2018-05-16T19:40:35.631Z,100783.61
2018-05-16T19:43:03.269Z,100784.66
2018-05-16T19:45:30.807Z,100781.14
2018-05-16T21:09:55.360Z,100797.08
2018-05-16T21:12:22.994Z,100798.56
2018-05-16T21:14:50.534Z,100792.92
2018-05-16T21:17:18.060Z,100795.52
2018-05-16T21:19:45.675Z,100792.79
2018-05-16T21:22:13.208Z,100789.21
2018-05-16T21:24:40.735Z,100783.70
2018-05-16T21:27:08.262Z,100788.45
2018-05-16T21:29:35.818Z,100793.88
2018-05-16T21:32:03.345Z,100793.08
2018-05-16T21:34:30.937Z,100799.94
2018-05-16T21:36:58.506Z,100799.55
2018-05-16T21:39:26.027Z,100798.05
2018-05-16T21:41:53.564Z,100796.97
2018-05-16T21:44:21.106Z,100801.91
2018-05-16T21:46:48.672Z,100802.40
2018-05-16T21:49:16.297Z,100801.62
2018-05-16T21:51:43.858Z,100799.60
2018-05-16T21:54:11.436Z,100793.73
2018-05-16T21:56:39.025Z,100793.69
2018-05-16T21:59:06.524Z,100796.45
2018-05-16T22:01:34.053Z,100795.69
2018-05-16T22:04:01.581Z,100790.75
2018-05-16T22:06:29.115Z,100792.97
2018-05-16T22:08:56.649Z,100789.74
2018-05-16T22:11:24.181Z,100790.05
2018-05-16T22:13:51.732Z,100788.81
2018-05-16T22:16:19.253Z,100792.52
2018-05-16T22:18:46.780Z,100790.71
2018-05-16T22:21:14.381Z,100793.06
2018-05-16T22:23:41.880Z,100790.93
2018-05-16T22:26:09.411Z,100793.41
2018-05-16T22:28:36.947Z,100785.91
2018-05-16T22:31:10.073Z,100785.61
2018-05-16T22:33:43.185Z,100780.96
2018-05-16T22:36:16.359Z,100786.82
2018-05-16T22:38:49.324Z,100785.52
2018-05-16T22:41:22.533Z,100782.05
2018-05-16T22:43:53.001Z,100784.45
2018-05-16T22:46:20.527Z,100776.37
2018-05-16T22:48:48.054Z,100775.94
2018-05-16T22:51:15.580Z,100768.14
2018-05-16T22:53:43.105Z,100775.17
2018-05-16T22:56:10.645Z,100773.14
2018-05-16T22:58:38.169Z,100765.67
2018-05-16T23:01:05.711Z,100760.64
2018-05-16T23:03:33.242Z,100758.06
2018-05-16T23:06:00.781Z,100758.36
2018-05-16T23:08:28.324Z,100756.58
2018-05-16T23:10:55.850Z,100760.38
2018-05-16T23:13:23.379Z,100759.76
2018-05-16T23:15:50.921Z,100757.81
2018-05-16T23:18:18.462Z,100757.48
2018-05-16T23:20:46.003Z,100754.92
2018-05-16T23:23:13.545Z,100755.32
2018-05-16T23:25:41.075Z,100763.92
2018-05-16T23:28:08.747Z,100762.87
2018-05-16T23:30:36.293Z,100757.20
2018-05-16T23:33:03.822Z,100757.74
2018-05-16T23:35:31.350Z,100755.45
2018-05-16T23:37:58.873Z,100759.24
2018-05-16T23:40:26.409Z,100758.64
2018-05-16T23:42:53.997Z,100752.35
2018-05-16T23:45:21.520Z,100747.98
2018-05-16T23:47:49.045Z,100745.05
2018-05-16T23:50:16.567Z,100747.47
2018-05-16T23:52:44.093Z,100744.92
2018-05-16T23:55:11.623Z,100747.31
2018-05-16T23:57:39.146Z,100744.16
